sensor_id;sensor_type;location;lat;lon;timestamp;pressure;altitude;pressure_sealevel;temperature;humidity
64687;BME280;51113;53.646;-113.674;2023-11-19T00:01:36;92248.47;;;5.41;62.58
64687;BME280;51113;53.646;-113.674;2023-11-19T00:04:05;92254.44;;;5.26;62.68
64687;BME280;51113;53.646;-113.674;2023-11-19T00:06:34;92252.69;;;5.11;63.20
64687;BME280;51113;53.646;-113.674;2023-11-19T00:09:02;92256.34;;;4.85;64.45
64687;BME280;51113;53.646;-113.674;2023-11-19T00:11:32;92260.22;;;4.62;65.38
64687;BME280;51113;53.646;-113.674;2023-11-19T00:14:00;92262.03;;;4.57;66.25
64687;BME280;51113;53.646;-113.674;2023-11-19T00:16:29;92253.53;;;4.31;66.70
64687;BME280;51113;53.646;-113.674;2023-11-19T00:19:00;92251.72;;;4.11;67.60
64687;BME280;51113;53.646;-113.674;2023-11-19T00:21:28;92248.06;;;3.81;68.88
64687;BME280;51113;53.646;-113.674;2023-11-19T00:23:57;92258.84;;;3.73;70.33
64687;BME280;51113;53.646;-113.674;2023-11-19T00:26:26;92251.88;;;3.64;70.12
64687;BME280;51113;53.646;-113.674;2023-11-19T00:28:55;92248.69;;;3.31;71.40
64687;BME280;51113;53.646;-113.674;2023-11-19T00:31:24;92248.81;;;3.04;72.12
64687;BME280;51113;53.646;-113.674;2023-11-19T00:33:54;92242.13;;;3.03;71.97
64687;BME280;51113;53.646;-113.674;2023-11-19T00:36:23;92241.16;;;3.09;72.51
64687;BME280;51113;53.646;-113.674;2023-11-19T00:38:52;92248.50;;;2.96;72.57
64687;BME280;51113;53.646;-113.674;2023-11-19T00:41:20;92239.56;;;2.98;72.53
64687;BME280;51113;53.646;-113.674;2023-11-19T00:43:49;92236.22;;;2.98;72.33
64687;BME280;51113;53.646;-113.674;2023-11-19T00:46:18;92235.63;;;2.85;73.30
64687;BME280;51113;53.646;-113.674;2023-11-19T00:48:47;92230.34;;;2.60;73.58
64687;BME280;51113;53.646;-113.674;2023-11-19T00:51:16;92223.41;;;2.55;74.01
64687;BME280;51113;53.646;-113.674;2023-11-19T00:53:44;92225.97;;;2.98;72.78
64687;BME280;51113;53.646;-113.674;2023-11-19T00:56:13;92219.88;;;2.62;73.47
64687;BME280;51113;53.646;-113.674;2023-11-19T00:58:42;92220.78;;;2.45;74.04
64687;BME280;51113;53.646;-113.674;2023-11-19T01:01:13;92217.84;;;2.26;74.74
64687;BME280;51113;53.646;-113.674;2023-11-19T01:03:42;92217.25;;;2.19;75.78
64687;BME280;51113;53.646;-113.674;2023-11-19T01:06:11;92220.84;;;2.18;75.14
64687;BME280;51113;53.646;-113.674;2023-11-19T01:08:40;92217.19;;;2.09;76.12
64687;BME280;51113;53.646;-113.674;2023-11-19T01:11:20;92221.16;;;1.95;76.50
64687;BME280;51113;53.646;-113.674;2023-11-19T01:13:50;92219.34;;;1.90;76.71
64687;BME280;51113;53.646;-113.674;2023-11-19T01:16:19;92207.03;;;1.60;77.50
64687;BME280;51113;53.646;-113.674;2023-11-19T01:18:48;92218.91;;;1.45;78.24
64687;BME280;51113;53.646;-113.674;2023-11-19T01:21:16;92220.88;;;1.91;77.67
64687;BME280;51113;53.646;-113.674;2023-11-19T01:23:46;92221.84;;;1.58;77.91
64687;BME280;51113;53.646;-113.674;2023-11-19T01:26:15;92220.81;;;1.33;79.14
64687;BME280;51113;53.646;-113.674;2023-11-19T01:28:44;92209.09;;;1.37;79.00
64687;BME280;51113;53.646;-113.674;2023-11-19T01:31:15;92219.88;;;1.17;79.14
64687;BME280;51113;53.646;-113.674;2023-11-19T01:33:44;92215.47;;;1.12;79.79
64687;BME280;51113;53.646;-113.674;2023-11-19T01:36:14;92208.75;;;1.06;80.51
64687;BME280;51113;53.646;-113.674;2023-11-19T01:38:43;92202.22;;;1.15;79.81
64687;BME280;51113;53.646;-113.674;2023-11-19T01:41:12;92198.13;;;0.92;80.31
64687;BME280;51113;53.646;-113.674;2023-11-19T01:43:41;92193.84;;;0.98;80.33
64687;BME280;51113;53.646;-113.674;2023-11-19T01:46:09;92200.38;;;0.89;80.21
64687;BME280;51113;53.646;-113.674;2023-11-19T01:48:44;92189.91;;;0.69;80.98
64687;BME280;51113;53.646;-113.674;2023-11-19T01:51:13;92185.88;;;0.73;81.61
64687;BME280;51113;53.646;-113.674;2023-11-19T01:53:44;92186.88;;;0.72;81.09
64687;BME280;51113;53.646;-113.674;2023-11-19T01:56:14;92184.72;;;0.63;80.60
64687;BME280;51113;53.646;-113.674;2023-11-19T01:58:45;92177.41;;;0.50;81.52
64687;BME280;51113;53.646;-113.674;2023-11-19T02:01:15;92182.75;;;0.49;82.29
64687;BME280;51113;53.646;-113.674;2023-11-19T02:03:44;92173.63;;;0.36;82.82
64687;BME280;51113;53.646;-113.674;2023-11-19T02:06:13;92172.59;;;0.15;82.37
64687;BME280;51113;53.646;-113.674;2023-11-19T02:08:42;92170.72;;;0.27;82.71
64687;BME280;51113;53.646;-113.674;2023-11-19T02:11:11;92165.31;;;0.24;83.05
64687;BME280;51113;53.646;-113.674;2023-11-19T02:13:40;92143.03;;;0.80;82.23
64687;BME280;51113;53.646;-113.674;2023-11-19T02:16:09;92151.72;;;1.27;80.18
64687;BME280;51113;53.646;-113.674;2023-11-19T02:18:39;92146.78;;;0.94;80.07
64687;BME280;51113;53.646;-113.674;2023-11-19T02:21:08;92146.38;;;0.80;81.09
64687;BME280;51113;53.646;-113.674;2023-11-19T02:23:38;92150.13;;;1.21;80.41
64687;BME280;51113;53.646;-113.674;2023-11-19T02:26:14;92135.47;;;1.39;79.60
64687;BME280;51113;53.646;-113.674;2023-11-19T02:28:46;92132.56;;;1.57;78.20
64687;BME280;51113;53.646;-113.674;2023-11-19T02:31:15;92137.72;;;1.62;78.59
64687;BME280;51113;53.646;-113.674;2023-11-19T02:33:44;92125.44;;;1.32;78.43
64687;BME280;51113;53.646;-113.674;2023-11-19T02:36:13;92137.69;;;1.30;79.27
64687;BME280;51113;53.646;-113.674;2023-11-19T02:38:41;92128.19;;;1.84;78.58
64687;BME280;51113;53.646;-113.674;2023-11-19T02:41:10;92100.63;;;1.97;77.14
64687;BME280;51113;53.646;-113.674;2023-11-19T02:43:38;92122.63;;;1.98;77.10
64687;BME280;51113;53.646;-113.674;2023-11-19T02:46:07;92113.00;;;1.73;77.47
64687;BME280;51113;53.646;-113.674;2023-11-19T02:48:39;92100.00;;;1.47;78.32
64687;BME280;51113;53.646;-113.674;2023-11-19T02:51:08;92108.94;;;1.45;78.59
64687;BME280;51113;53.646;-113.674;2023-11-19T02:53:39;92113.50;;;1.43;79.14
64687;BME280;51113;53.646;-113.674;2023-11-19T02:56:08;92113.63;;;1.58;79.46
64687;BME280;51113;53.646;-113.674;2023-11-19T02:58:47;92092.03;;;1.44;78.64
64687;BME280;51113;53.646;-113.674;2023-11-19T03:01:26;92108.28;;;1.59;79.04
64687;BME280;51113;53.646;-113.674;2023-11-19T03:03:59;92110.34;;;1.31;78.95
64687;BME280;51113;53.646;-113.674;2023-11-19T03:06:30;92100.41;;;1.07;79.70
64687;BME280;51113;53.646;-113.674;2023-11-19T03:08:59;92110.47;;;0.92;79.86
64687;BME280;51113;53.646;-113.674;2023-11-19T03:11:34;92107.41;;;0.68;80.88
64687;BME280;51113;53.646;-113.674;2023-11-19T03:14:03;92104.47;;;0.38;82.48
64687;BME280;51113;53.646;-113.674;2023-11-19T03:16:35;92105.00;;;0.18;82.83
64687;BME280;51113;53.646;-113.674;2023-11-19T03:19:03;92096.81;;;0.16;83.27
64687;BME280;51113;53.646;-113.674;2023-11-19T03:21:32;92092.38;;;0.72;82.53
64687;BME280;51113;53.646;-113.674;2023-11-19T03:24:01;92095.44;;;0.74;80.74
64687;BME280;51113;53.646;-113.674;2023-11-19T03:26:30;92103.34;;;0.50;81.16
64687;BME280;51113;53.646;-113.674;2023-11-19T03:28:58;92099.06;;;0.34;81.34
64687;BME280;51113;53.646;-113.674;2023-11-19T03:31:27;92104.44;;;0.16;82.56
64687;BME280;51113;53.646;-113.674;2023-11-19T03:33:55;92108.09;;;0.03;82.88
64687;BME280;51113;53.646;-113.674;2023-11-19T03:36:27;92121.56;;;-0.02;83.29
64687;BME280;51113;53.646;-113.674;2023-11-19T03:39:00;92125.59;;;-0.06;83.37
64687;BME280;51113;53.646;-113.674;2023-11-19T03:41:29;92113.94;;;-0.18;83.91
64687;BME280;51113;53.646;-113.674;2023-11-19T03:44:08;92126.53;;;-0.28;84.29
64687;BME280;51113;53.646;-113.674;2023-11-19T03:46:36;92123.75;;;-0.27;86.18
64687;BME280;51113;53.646;-113.674;2023-11-19T03:49:05;92119.25;;;-0.53;85.91
64687;BME280;51113;53.646;-113.674;2023-11-19T03:51:35;92110.28;;;-0.56;86.41
64687;BME280;51113;53.646;-113.674;2023-11-19T03:54:03;92102.41;;;-0.54;86.11
64687;BME280;51113;53.646;-113.674;2023-11-19T03:56:32;92086.03;;;-0.58;86.32
64687;BME280;51113;53.646;-113.674;2023-11-19T03:59:01;92093.00;;;-0.54;86.14
64687;BME280;51113;53.646;-113.674;2023-11-19T04:01:29;92080.03;;;-0.52;85.64
64687;BME280;51113;53.646;-113.674;2023-11-19T04:03:58;92087.66;;;-0.52;86.05
64687;BME280;51113;53.646;-113.674;2023-11-19T04:06:27;92078.31;;;-0.63;86.01
64687;BME280;51113;53.646;-113.674;2023-11-19T04:08:56;92069.50;;;-0.73;86.29
64687;BME280;51113;53.646;-113.674;2023-11-19T04:11:25;92076.78;;;-0.64;86.13
64687;BME280;51113;53.646;-113.674;2023-11-19T04:13:53;92086.72;;;-0.63;86.24
64687;BME280;51113;53.646;-113.674;2023-11-19T04:16:31;92071.06;;;-0.72;86.54
64687;BME280;51113;53.646;-113.674;2023-11-19T04:18:59;92079.94;;;-0.74;86.36
64687;BME280;51113;53.646;-113.674;2023-11-19T04:21:28;92073.97;;;-0.80;87.46
64687;BME280;51113;53.646;-113.674;2023-11-19T04:23:57;92072.59;;;-0.37;87.77
64687;BME280;51113;53.646;-113.674;2023-11-19T04:26:25;92065.41;;;-0.57;86.63
64687;BME280;51113;53.646;-113.674;2023-11-19T04:28:54;92077.47;;;-0.52;86.33
64687;BME280;51113;53.646;-113.674;2023-11-19T04:31:23;92079.56;;;-0.49;86.75
64687;BME280;51113;53.646;-113.674;2023-11-19T04:33:51;92081.41;;;-0.45;86.16
64687;BME280;51113;53.646;-113.674;2023-11-19T04:36:20;92080.63;;;-0.45;86.24
64687;BME280;51113;53.646;-113.674;2023-11-19T04:38:52;92065.03;;;-0.49;85.93
64687;BME280;51113;53.646;-113.674;2023-11-19T04:41:21;92067.13;;;-0.46;86.72
64687;BME280;51113;53.646;-113.674;2023-11-19T04:43:49;92058.94;;;-0.48;86.82
64687;BME280;51113;53.646;-113.674;2023-11-19T04:46:18;92055.69;;;-0.43;86.63
64687;BME280;51113;53.646;-113.674;2023-11-19T04:48:47;92040.38;;;-0.43;85.69
64687;BME280;51113;53.646;-113.674;2023-11-19T04:51:16;92050.34;;;-0.58;86.61
64687;BME280;51113;53.646;-113.674;2023-11-19T04:53:44;92033.28;;;-0.75;87.56
64687;BME280;51113;53.646;-113.674;2023-11-19T04:56:13;92041.09;;;-0.64;87.40
64687;BME280;51113;53.646;-113.674;2023-11-19T04:58:43;92035.31;;;-0.60;87.62
64687;BME280;51113;53.646;-113.674;2023-11-19T05:01:14;92044.94;;;-0.62;86.71
64687;BME280;51113;53.646;-113.674;2023-11-19T05:03:45;92052.28;;;-0.66;86.71
64687;BME280;51113;53.646;-113.674;2023-11-19T05:06:14;92058.53;;;-0.73;87.11
64687;BME280;51113;53.646;-113.674;2023-11-19T05:08:44;92046.09;;;-0.86;87.48
64687;BME280;51113;53.646;-113.674;2023-11-19T05:11:13;92045.25;;;-0.92;87.65
64687;BME280;51113;53.646;-113.674;2023-11-19T05:13:46;92050.81;;;-0.95;87.62
64687;BME280;51113;53.646;-113.674;2023-11-19T05:16:14;92047.94;;;-0.99;86.26
64687;BME280;51113;53.646;-113.674;2023-11-19T05:18:43;92043.28;;;-1.18;86.22
64687;BME280;51113;53.646;-113.674;2023-11-19T05:21:12;92049.94;;;-1.17;86.12
64687;BME280;51113;53.646;-113.674;2023-11-19T05:23:41;92055.66;;;-1.39;85.95
64687;BME280;51113;53.646;-113.674;2023-11-19T05:26:16;92044.53;;;-1.49;85.99
64687;BME280;51113;53.646;-113.674;2023-11-19T05:28:45;92059.16;;;-1.56;85.60
64687;BME280;51113;53.646;-113.674;2023-11-19T05:31:14;92062.63;;;-1.74;85.22
64687;BME280;51113;53.646;-113.674;2023-11-19T05:33:44;92048.63;;;-1.88;84.21
64687;BME280;51113;53.646;-113.674;2023-11-19T05:36:12;92064.66;;;-2.00;85.15
64687;BME280;51113;53.646;-113.674;2023-11-19T05:38:41;92054.28;;;-2.10;85.33
64687;BME280;51113;53.646;-113.674;2023-11-19T05:41:09;92051.97;;;-2.11;84.81
64687;BME280;51113;53.646;-113.674;2023-11-19T05:43:38;92056.16;;;-2.05;85.17
64687;BME280;51113;53.646;-113.674;2023-11-19T05:46:08;92047.66;;;-2.11;85.00
64687;BME280;51113;53.646;-113.674;2023-11-19T05:48:40;92043.03;;;-2.25;85.68
64687;BME280;51113;53.646;-113.674;2023-11-19T05:51:08;92045.91;;;-2.22;85.43
64687;BME280;51113;53.646;-113.674;2023-11-19T05:53:37;92038.84;;;-2.32;86.23
64687;BME280;51113;53.646;-113.674;2023-11-19T05:56:05;92039.63;;;-2.31;85.29
64687;BME280;51113;53.646;-113.674;2023-11-19T05:58:37;92045.03;;;-2.28;85.97
64687;BME280;51113;53.646;-113.674;2023-11-19T06:01:08;92042.72;;;-2.41;86.06
64687;BME280;51113;53.646;-113.674;2023-11-19T06:03:37;92049.44;;;-2.46;86.02
64687;BME280;51113;53.646;-113.674;2023-11-19T06:06:06;92057.28;;;-2.48;87.04
64687;BME280;51113;53.646;-113.674;2023-11-19T06:08:35;92055.41;;;-2.52;86.46
64687;BME280;51113;53.646;-113.674;2023-11-19T06:11:03;92058.94;;;-2.53;86.83
64687;BME280;51113;53.646;-113.674;2023-11-19T06:13:32;92057.84;;;-2.57;87.82
64687;BME280;51113;53.646;-113.674;2023-11-19T06:16:00;92056.75;;;-2.62;87.10
64687;BME280;51113;53.646;-113.674;2023-11-19T06:18:31;92049.88;;;-2.73;87.16
64687;BME280;51113;53.646;-113.674;2023-11-19T06:20:59;92043.47;;;-2.64;87.37
64687;BME280;51113;53.646;-113.674;2023-11-19T06:23:28;92038.63;;;-2.77;87.80
64687;BME280;51113;53.646;-113.674;2023-11-19T06:25:57;92034.63;;;-2.84;87.98
64687;BME280;51113;53.646;-113.674;2023-11-19T06:28:25;92045.69;;;-2.79;88.54
64687;BME280;51113;53.646;-113.674;2023-11-19T06:30:54;92041.47;;;-2.85;88.70
64687;BME280;51113;53.646;-113.674;2023-11-19T06:33:22;92050.09;;;-2.86;89.14
64687;BME280;51113;53.646;-113.674;2023-11-19T06:35:52;92043.56;;;-2.94;89.44
64687;BME280;51113;53.646;-113.674;2023-11-19T06:38:20;92043.66;;;-3.00;89.08
64687;BME280;51113;53.646;-113.674;2023-11-19T06:40:49;92036.59;;;-2.98;89.80
64687;BME280;51113;53.646;-113.674;2023-11-19T06:43:20;92047.66;;;-2.81;90.04
64687;BME280;51113;53.646;-113.674;2023-11-19T06:45:49;92000.16;;;-3.04;90.00
64687;BME280;51113;53.646;-113.674;2023-11-19T06:48:18;92041.03;;;-2.82;89.58
64687;BME280;51113;53.646;-113.674;2023-11-19T06:50:47;92047.44;;;-2.79;90.85
64687;BME280;51113;53.646;-113.674;2023-11-19T06:53:15;92047.44;;;-2.91;90.32
64687;BME280;51113;53.646;-113.674;2023-11-19T06:55:44;92040.47;;;-2.96;90.91
64687;BME280;51113;53.646;-113.674;2023-11-19T06:58:14;92046.00;;;-2.87;90.57
64687;BME280;51113;53.646;-113.674;2023-11-19T07:00:42;92037.69;;;-3.06;91.24
64687;BME280;51113;53.646;-113.674;2023-11-19T07:03:11;92041.44;;;-3.08;91.72
64687;BME280;51113;53.646;-113.674;2023-11-19T07:05:41;92042.75;;;-3.06;91.42
64687;BME280;51113;53.646;-113.674;2023-11-19T07:08:09;92041.13;;;-3.00;91.58
64687;BME280;51113;53.646;-113.674;2023-11-19T07:10:38;92038.25;;;-3.04;92.12
64687;BME280;51113;53.646;-113.674;2023-11-19T07:13:07;92032.94;;;-3.02;92.27
64687;BME280;51113;53.646;-113.674;2023-11-19T07:15:35;92029.06;;;-3.16;92.43
64687;BME280;51113;53.646;-113.674;2023-11-19T07:18:04;92028.53;;;-3.07;93.31
64687;BME280;51113;53.646;-113.674;2023-11-19T07:20:32;92035.38;;;-3.07;92.80
64687;BME280;51113;53.646;-113.674;2023-11-19T07:23:01;92028.31;;;-3.05;92.49
64687;BME280;51113;53.646;-113.674;2023-11-19T07:25:30;92023.00;;;-3.04;92.54
64687;BME280;51113;53.646;-113.674;2023-11-19T07:27:59;92024.75;;;-3.16;92.37
64687;BME280;51113;53.646;-113.674;2023-11-19T07:30:27;92015.91;;;-3.25;92.94
64687;BME280;51113;53.646;-113.674;2023-11-19T07:32:56;92005.41;;;-3.29;93.60
64687;BME280;51113;53.646;-113.674;2023-11-19T07:35:25;91992.50;;;-3.27;93.14
64687;BME280;51113;53.646;-113.674;2023-11-19T07:37:54;92003.44;;;-3.27;93.25
64687;BME280;51113;53.646;-113.674;2023-11-19T07:40:23;92002.47;;;-3.14;94.32
64687;BME280;51113;53.646;-113.674;2023-11-19T07:42:54;92009.88;;;-3.12;93.61
64687;BME280;51113;53.646;-113.674;2023-11-19T07:45:22;92002.88;;;-3.29;93.71
64687;BME280;51113;53.646;-113.674;2023-11-19T07:47:51;92009.19;;;-3.19;94.20
64687;BME280;51113;53.646;-113.674;2023-11-19T07:50:20;91997.63;;;-3.15;93.93
64687;BME280;51113;53.646;-113.674;2023-11-19T07:52:48;91996.91;;;-3.34;93.66
64687;BME280;51113;53.646;-113.674;2023-11-19T07:55:17;92005.00;;;-3.26;93.78
64687;BME280;51113;53.646;-113.674;2023-11-19T07:57:45;92004.56;;;-3.22;94.11
64687;BME280;51113;53.646;-113.674;2023-11-19T08:00:15;92005.75;;;-3.25;93.59
64687;BME280;51113;53.646;-113.674;2023-11-19T08:02:44;91999.59;;;-3.17;93.44
64687;BME280;51113;53.646;-113.674;2023-11-19T08:05:13;92007.53;;;-3.26;93.13
64687;BME280;51113;53.646;-113.674;2023-11-19T08:07:42;92006.53;;;-3.24;93.66
64687;BME280;51113;53.646;-113.674;2023-11-19T08:10:10;92005.22;;;-3.15;93.78
64687;BME280;51113;53.646;-113.674;2023-11-19T08:12:39;92011.41;;;-3.11;93.00
64687;BME280;51113;53.646;-113.674;2023-11-19T08:15:08;92015.81;;;-3.18;92.81
64687;BME280;51113;53.646;-113.674;2023-11-19T08:17:37;92015.69;;;-3.23;93.00
64687;BME280;51113;53.646;-113.674;2023-11-19T08:20:06;92014.47;;;-3.33;93.70
64687;BME280;51113;53.646;-113.674;2023-11-19T08:22:38;92007.94;;;-3.40;93.15
64687;BME280;51113;53.646;-113.674;2023-11-19T08:25:07;92007.59;;;-3.44;93.83
64687;BME280;51113;53.646;-113.674;2023-11-19T08:27:36;91986.75;;;-3.46;94.34
64687;BME280;51113;53.646;-113.674;2023-11-19T08:30:05;92003.72;;;-3.46;94.58
64687;BME280;51113;53.646;-113.674;2023-11-19T08:32:34;91993.03;;;-3.37;94.35
64687;BME280;51113;53.646;-113.674;2023-11-19T08:35:04;92001.22;;;-3.35;93.73
64687;BME280;51113;53.646;-113.674;2023-11-19T08:37:34;92010.72;;;-3.30;93.73
64687;BME280;51113;53.646;-113.674;2023-11-19T08:40:05;92005.19;;;-3.39;93.93
64687;BME280;51113;53.646;-113.674;2023-11-19T08:42:35;92011.47;;;-3.41;93.75
64687;BME280;51113;53.646;-113.674;2023-11-19T08:45:05;92016.97;;;-3.44;93.42
64687;BME280;51113;53.646;-113.674;2023-11-19T08:47:33;92010.22;;;-3.50;93.08
64687;BME280;51113;53.646;-113.674;2023-11-19T08:50:02;92013.31;;;-3.48;93.41
64687;BME280;51113;53.646;-113.674;2023-11-19T08:52:32;92006.34;;;-3.53;93.19
64687;BME280;51113;53.646;-113.674;2023-11-19T08:55:01;92018.31;;;-3.30;94.01
64687;BME280;51113;53.646;-113.674;2023-11-19T08:57:31;92016.88;;;-3.38;93.53
64687;BME280;51113;53.646;-113.674;2023-11-19T09:00:01;92035.19;;;-3.36;93.79
64687;BME280;51113;53.646;-113.674;2023-11-19T09:02:30;92029.44;;;-3.43;93.46
64687;BME280;51113;53.646;-113.674;2023-11-19T09:05:01;92033.84;;;-3.38;93.75
64687;BME280;51113;53.646;-113.674;2023-11-19T09:07:30;92036.75;;;-3.35;93.48
64687;BME280;51113;53.646;-113.674;2023-11-19T09:09:59;92040.50;;;-3.26;94.54
64687;BME280;51113;53.646;-113.674;2023-11-19T09:12:28;92045.94;;;-3.22;94.15
64687;BME280;51113;53.646;-113.674;2023-11-19T09:14:56;92047.56;;;-3.28;94.11
64687;BME280;51113;53.646;-113.674;2023-11-19T09:17:25;92033.59;;;-3.18;95.21
64687;BME280;51113;53.646;-113.674;2023-11-19T09:19:54;92030.53;;;-3.39;94.05
64687;BME280;51113;53.646;-113.674;2023-11-19T09:22:22;92030.13;;;-3.36;93.85
64687;BME280;51113;53.646;-113.674;2023-11-19T09:24:52;92024.72;;;-3.28;94.58
64687;BME280;51113;53.646;-113.674;2023-11-19T09:27:21;92035.19;;;-3.36;93.42
64687;BME280;51113;53.646;-113.674;2023-11-19T09:29:49;92031.03;;;-3.60;93.65
64687;BME280;51113;53.646;-113.674;2023-11-19T09:32:23;92025.41;;;-3.62;94.19
64687;BME280;51113;53.646;-113.674;2023-11-19T09:34:52;92033.38;;;-3.47;94.80
64687;BME280;51113;53.646;-113.674;2023-11-19T09:37:20;92038.34;;;-3.52;93.91
64687;BME280;51113;53.646;-113.674;2023-11-19T09:39:49;92031.50;;;-3.51;94.79
64687;BME280;51113;53.646;-113.674;2023-11-19T09:42:18;92028.31;;;-3.47;95.26
64687;BME280;51113;53.646;-113.674;2023-11-19T09:44:47;92035.25;;;-3.54;93.69
64687;BME280;51113;53.646;-113.674;2023-11-19T09:47:17;92040.53;;;-3.55;94.53
64687;BME280;51113;53.646;-113.674;2023-11-19T09:49:49;92052.31;;;-3.61;94.27
64687;BME280;51113;53.646;-113.674;2023-11-19T09:52:18;92056.38;;;-3.60;94.66
64687;BME280;51113;53.646;-113.674;2023-11-19T09:54:46;92048.34;;;-3.57;93.58
64687;BME280;51113;53.646;-113.674;2023-11-19T09:57:16;92048.94;;;-3.73;93.55
64687;BME280;51113;53.646;-113.674;2023-11-19T09:59:46;92051.06;;;-3.88;94.49
64687;BME280;51113;53.646;-113.674;2023-11-19T10:02:16;92046.84;;;-3.95;94.43
64687;BME280;51113;53.646;-113.674;2023-11-19T10:04:46;92046.72;;;-4.00;94.02
64687;BME280;51113;53.646;-113.674;2023-11-19T10:07:16;92042.34;;;-4.11;94.40
64687;BME280;51113;53.646;-113.674;2023-11-19T10:09:46;92039.31;;;-4.01;94.68
64687;BME280;51113;53.646;-113.674;2023-11-19T10:12:15;92039.47;;;-3.96;94.47
64687;BME280;51113;53.646;-113.674;2023-11-19T10:14:46;92035.59;;;-3.99;94.57
64687;BME280;51113;53.646;-113.674;2023-11-19T10:17:16;92024.34;;;-4.03;94.05
64687;BME280;51113;53.646;-113.674;2023-11-19T10:19:44;92033.75;;;-3.92;94.19
64687;BME280;51113;53.646;-113.674;2023-11-19T10:22:14;92036.22;;;-4.03;93.23
64687;BME280;51113;53.646;-113.674;2023-11-19T10:24:45;92036.44;;;-4.05;93.60
64687;BME280;51113;53.646;-113.674;2023-11-19T10:27:20;92039.69;;;-4.16;93.67
64687;BME280;51113;53.646;-113.674;2023-11-19T10:29:48;92045.25;;;-4.07;94.23
64687;BME280;51113;53.646;-113.674;2023-11-19T10:32:17;92045.03;;;-4.06;93.85
64687;BME280;51113;53.646;-113.674;2023-11-19T10:35:04;92047.56;;;-4.06;94.20
64687;BME280;51113;53.646;-113.674;2023-11-19T10:37:34;92050.31;;;-4.07;94.46
64687;BME280;51113;53.646;-113.674;2023-11-19T10:40:05;92043.91;;;-4.10;93.90
64687;BME280;51113;53.646;-113.674;2023-11-19T10:42:34;92051.09;;;-4.07;93.55
64687;BME280;51113;53.646;-113.674;2023-11-19T10:45:04;92019.63;;;-4.36;93.68
64687;BME280;51113;53.646;-113.674;2023-11-19T10:47:34;92047.63;;;-4.12;93.77
64687;BME280;51113;53.646;-113.674;2023-11-19T10:50:05;92050.22;;;-4.01;94.23
64687;BME280;51113;53.646;-113.674;2023-11-19T10:52:34;92013.56;;;-4.16;95.75
64687;BME280;51113;53.646;-113.674;2023-11-19T10:55:05;92046.44;;;-3.92;94.66
64687;BME280;51113;53.646;-113.674;2023-11-19T10:57:37;92041.50;;;-3.86;94.81
64687;BME280;51113;53.646;-113.674;2023-11-19T11:00:09;92048.25;;;-3.99;95.07
64687;BME280;51113;53.646;-113.674;2023-11-19T11:02:41;92050.50;;;-3.91;96.06
64687;BME280;51113;53.646;-113.674;2023-11-19T11:05:14;92047.97;;;-3.91;94.92
64687;BME280;51113;53.646;-113.674;2023-11-19T11:07:44;92047.28;;;-3.98;94.88
64687;BME280;51113;53.646;-113.674;2023-11-19T11:10:14;92029.59;;;-4.04;96.27
64687;BME280;51113;53.646;-113.674;2023-11-19T11:12:45;92047.41;;;-3.93;94.99
64687;BME280;51113;53.646;-113.674;2023-11-19T11:15:15;92040.31;;;-4.02;94.32
64687;BME280;51113;53.646;-113.674;2023-11-19T11:17:47;92044.13;;;-4.11;95.15
64687;BME280;51113;53.646;-113.674;2023-11-19T11:20:16;92031.16;;;-4.21;94.68
64687;BME280;51113;53.646;-113.674;2023-11-19T11:31:40;92039.25;;;-4.13;95.00
64687;BME280;51113;53.646;-113.674;2023-11-19T11:37:10;92041.72;;;-4.25;94.95
64687;BME280;51113;53.646;-113.674;2023-11-19T11:39:41;92038.47;;;-4.32;94.74
64687;BME280;51113;53.646;-113.674;2023-11-19T11:45:08;92030.81;;;-4.25;94.47
64687;BME280;51113;53.646;-113.674;2023-11-19T11:50:19;92028.13;;;-4.30;95.84
64687;BME280;51113;53.646;-113.674;2023-11-19T11:55:26;92004.97;;;-4.52;95.06
64687;BME280;51113;53.646;-113.674;2023-11-19T11:57:55;92038.28;;;-4.30;95.92
64687;BME280;51113;53.646;-113.674;2023-11-19T12:00:37;92044.19;;;-4.18;96.32
64687;BME280;51113;53.646;-113.674;2023-11-19T12:03:07;92033.78;;;-4.28;95.35
64687;BME280;51113;53.646;-113.674;2023-11-19T12:05:41;92037.84;;;-4.27;95.80
64687;BME280;51113;53.646;-113.674;2023-11-19T12:08:15;92030.59;;;-4.24;95.62
64687;BME280;51113;53.646;-113.674;2023-11-19T12:10:54;92044.47;;;-4.08;95.65
64687;BME280;51113;53.646;-113.674;2023-11-19T12:13:55;92051.09;;;-4.07;96.01
64687;BME280;51113;53.646;-113.674;2023-11-19T12:16:26;92053.47;;;-3.94;96.46
64687;BME280;51113;53.646;-113.674;2023-11-19T12:19:02;92046.56;;;-3.86;96.38
64687;BME280;51113;53.646;-113.674;2023-11-19T12:21:33;92052.47;;;-3.74;96.17
64687;BME280;51113;53.646;-113.674;2023-11-19T12:24:06;92053.41;;;-3.57;96.89
64687;BME280;51113;53.646;-113.674;2023-11-19T12:26:37;92050.03;;;-3.51;96.43
64687;BME280;51113;53.646;-113.674;2023-11-19T12:29:06;92045.94;;;-3.52;96.35
64687;BME280;51113;53.646;-113.674;2023-11-19T12:31:36;92057.50;;;-3.56;95.05
64687;BME280;51113;53.646;-113.674;2023-11-19T12:34:06;92057.09;;;-3.71;94.58
64687;BME280;51113;53.646;-113.674;2023-11-19T12:36:36;92049.22;;;-3.81;94.98
64687;BME280;51113;53.646;-113.674;2023-11-19T12:39:04;92067.97;;;-3.82;93.92
64687;BME280;51113;53.646;-113.674;2023-11-19T12:41:48;92061.91;;;-4.00;94.27
64687;BME280;51113;53.646;-113.674;2023-11-19T12:44:18;92063.19;;;-3.91;94.54
64687;BME280;51113;53.646;-113.674;2023-11-19T12:46:57;92061.16;;;-4.00;94.68
64687;BME280;51113;53.646;-113.674;2023-11-19T12:49:27;92069.31;;;-3.98;94.35
64687;BME280;51113;53.646;-113.674;2023-11-19T12:51:56;92065.44;;;-4.01;95.27
64687;BME280;51113;53.646;-113.674;2023-11-19T12:54:37;92064.94;;;-4.09;94.91
64687;BME280;51113;53.646;-113.674;2023-11-19T12:57:06;92067.56;;;-3.98;95.34
64687;BME280;51113;53.646;-113.674;2023-11-19T12:59:36;92068.19;;;-4.02;94.94
64687;BME280;51113;53.646;-113.674;2023-11-19T13:02:05;92047.84;;;-4.14;94.83
64687;BME280;51113;53.646;-113.674;2023-11-19T13:04:35;92066.44;;;-4.02;94.06
64687;BME280;51113;53.646;-113.674;2023-11-19T13:07:03;92078.25;;;-4.14;93.73